createdAt,value
2018-06-22T00:00:37.239Z,2.10
2018-06-22T00:03:04.629Z,2.55
2018-06-22T00:05:31.928Z,2.62
2018-06-22T00:07:59.225Z,1.65
2018-06-22T00:10:26.636Z,2.35
2018-06-22T00:12:54.367Z,1.70
2018-06-22T00:15:22.515Z,2.00
2018-06-22T00:17:52.573Z,1.85
2018-06-22T00:20:19.913Z,1.70
2018-06-22T00:22:47.191Z,2.02
2018-06-22T00:25:14.547Z,2.33
2018-06-22T00:27:43.187Z,2.33
2018-06-22T00:30:10.492Z,1.85
2018-06-22T00:32:37.851Z,1.90
2018-06-22T00:35:05.407Z,1.90
2018-06-22T00:37:32.678Z,2.10
2018-06-22T00:40:00.134Z,3.02
2018-06-22T00:42:27.417Z,2.30
2018-06-22T00:44:54.771Z,2.02
2018-06-22T00:47:22.085Z,1.95
2018-06-22T00:49:49.382Z,2.60
2018-06-22T00:52:16.663Z,2.75
2018-06-22T00:54:43.956Z,2.58
2018-06-22T00:57:11.261Z,2.02
2018-06-22T00:59:38.687Z,2.02
2018-06-22T01:02:05.996Z,2.02
2018-06-22T01:04:33.287Z,1.57
2018-06-22T01:07:00.553Z,2.05
2018-06-22T01:09:27.970Z,1.90
2018-06-22T01:11:55.811Z,1.67
2018-06-22T01:14:23.463Z,2.90
2018-06-22T01:16:50.753Z,2.15
2018-06-22T01:19:18.145Z,2.35
2018-06-22T01:21:46.422Z,2.10
2018-06-22T01:24:13.808Z,2.20
2018-06-22T01:26:41.171Z,2.10
2018-06-22T01:29:14.112Z,2.20
2018-06-22T01:31:41.370Z,2.05
2018-06-22T01:34:08.667Z,2.20
2018-06-22T01:36:35.942Z,1.67
2018-06-22T01:39:05.120Z,2.10
2018-06-22T01:41:32.462Z,2.20
2018-06-22T01:43:59.854Z,1.80
2018-06-22T01:46:27.167Z,2.80
2018-06-22T01:48:54.538Z,1.77
2018-06-22T01:51:21.803Z,2.12
2018-06-22T01:53:49.054Z,2.55
2018-06-22T01:56:16.303Z,2.55
2018-06-22T01:58:43.557Z,2.20
2018-06-22T02:01:10.837Z,1.95
2018-06-22T02:03:38.360Z,2.40
2018-06-22T02:06:06.472Z,1.92
2018-06-22T02:08:33.944Z,2.30
2018-06-22T02:11:01.445Z,1.92
2018-06-22T02:13:28.915Z,2.40
2018-06-22T02:15:56.367Z,2.10
2018-06-22T02:18:23.618Z,2.10
2018-06-22T02:20:51.174Z,2.42
2018-06-22T02:23:18.455Z,2.20
2018-06-22T02:25:46.059Z,2.17
2018-06-22T02:28:13.501Z,2.55
2018-06-22T02:30:40.919Z,1.80
2018-06-22T02:33:08.282Z,2.85
2018-06-22T02:35:35.530Z,2.55
2018-06-22T02:38:02.818Z,2.65
2018-06-22T02:40:30.079Z,2.47
2018-06-22T02:42:57.512Z,2.35
2018-06-22T02:45:24.808Z,2.50
2018-06-22T02:47:52.293Z,2.10
2018-06-22T02:50:19.781Z,2.30
2018-06-22T02:52:47.220Z,2.00
2018-06-22T02:55:14.710Z,2.40
2018-06-22T02:57:42.015Z,2.10
2018-06-22T03:00:09.630Z,2.50
2018-06-22T03:02:37.102Z,2.33
2018-06-22T03:05:04.663Z,2.77
2018-06-22T03:07:31.993Z,3.02
2018-06-22T03:10:02.048Z,1.90
2018-06-22T03:12:29.279Z,3.05
2018-06-22T03:14:56.601Z,2.33
2018-06-22T03:17:24.074Z,3.10
2018-06-22T03:19:51.341Z,2.27
2018-06-22T03:22:18.597Z,2.60
2018-06-22T03:24:45.863Z,3.12
2018-06-22T03:27:13.315Z,2.10
2018-06-22T03:29:40.560Z,2.80
2018-06-22T03:32:08.206Z,2.80
2018-06-22T03:34:35.407Z,3.30
2018-06-22T03:37:02.788Z,2.77
2018-06-22T03:39:30.171Z,2.77
2018-06-22T03:41:58.366Z,2.90
2018-06-22T03:44:25.712Z,2.70
2018-06-22T03:46:53.072Z,2.60
2018-06-22T03:49:20.334Z,3.30
2018-06-22T03:51:48.118Z,2.65
2018-06-22T03:54:15.467Z,2.42
2018-06-22T03:56:43.052Z,2.67
2018-06-22T03:59:10.329Z,2.55
2018-06-22T04:01:37.635Z,2.50
2018-06-22T04:04:05.010Z,2.90
2018-06-22T04:06:32.286Z,2.30
2018-06-22T04:08:59.638Z,2.60
2018-06-22T04:11:26.888Z,2.40
2018-06-22T04:13:54.402Z,2.47
2018-06-22T04:16:21.727Z,2.60
2018-06-22T04:18:49.011Z,2.67
2018-06-22T04:21:16.333Z,2.60
2018-06-22T04:23:43.636Z,2.40
2018-06-22T04:26:10.934Z,2.45
2018-06-22T04:28:38.230Z,2.65
2018-06-22T04:31:05.619Z,2.30
2018-06-22T04:33:32.911Z,2.98
2018-06-22T04:36:01.079Z,2.42
2018-06-22T04:38:28.522Z,2.37
2018-06-22T04:40:55.787Z,2.80
2018-06-22T04:43:23.080Z,2.65
2018-06-22T04:45:50.543Z,2.42
2018-06-22T04:48:17.871Z,3.25
2018-06-22T04:50:45.198Z,2.45
2018-06-22T04:53:12.643Z,2.00
2018-06-22T04:55:40.011Z,2.35
2018-06-22T04:58:07.327Z,2.52
2018-06-22T05:00:34.619Z,2.20
2018-06-22T05:03:01.891Z,2.15
2018-06-22T05:05:29.218Z,3.08
2018-06-22T05:07:56.497Z,2.25
2018-06-22T05:10:23.794Z,3.27
2018-06-22T05:12:51.074Z,2.42
2018-06-22T05:15:18.676Z,2.10
2018-06-22T05:17:46.011Z,2.57
2018-06-22T05:20:13.432Z,2.25
2018-06-22T05:22:40.782Z,2.80
2018-06-22T05:25:08.049Z,2.30
2018-06-22T05:27:36.147Z,2.40
2018-06-22T05:30:03.727Z,3.07
2018-06-22T05:32:31.041Z,2.20
2018-06-22T05:34:58.611Z,2.83
2018-06-22T05:37:26.162Z,2.33
2018-06-22T05:39:57.945Z,3.03
2018-06-22T05:42:25.447Z,2.67
2018-06-22T05:44:52.916Z,2.87
2018-06-22T05:47:20.406Z,3.12
2018-06-22T05:49:47.882Z,2.35
2018-06-22T05:52:15.429Z,2.52
2018-06-22T05:54:42.929Z,3.12
2018-06-22T05:57:10.369Z,2.55
2018-06-22T05:59:37.932Z,2.80
2018-06-22T06:02:05.742Z,2.65
2018-06-22T06:04:33.095Z,3.10
2018-06-22T06:07:00.408Z,2.70
2018-06-22T06:09:27.802Z,3.15
2018-06-22T06:11:55.069Z,3.08
2018-06-22T06:14:22.529Z,2.70
2018-06-22T06:16:50.300Z,2.95
2018-06-22T06:19:17.526Z,2.40
2018-06-22T06:21:45.577Z,2.45
2018-06-22T06:24:12.772Z,3.10
2018-06-22T06:26:40.070Z,3.05
2018-06-22T06:29:07.284Z,2.67
2018-06-22T06:31:35.105Z,3.17
2018-06-22T06:34:02.288Z,3.02
2018-06-22T06:36:30.116Z,3.70
2018-06-22T06:38:58.991Z,3.10
2018-06-22T06:41:28.558Z,2.58
2018-06-22T06:43:55.737Z,3.65
2018-06-22T06:46:22.910Z,2.52
2018-06-22T06:48:50.116Z,2.80
2018-06-22T06:51:17.298Z,2.83
2018-06-22T06:53:44.631Z,3.58
2018-06-22T06:56:13.234Z,3.08
2018-06-22T06:58:41.847Z,2.98
2018-06-22T07:01:09.039Z,3.05
2018-06-22T07:03:36.484Z,3.92
2018-06-22T07:06:03.736Z,2.52
2018-06-22T07:08:34.169Z,3.15
2018-06-22T07:11:02.313Z,3.63
2018-06-22T07:13:29.650Z,3.30
2018-06-22T07:15:56.872Z,2.77
2018-06-22T07:18:25.487Z,3.90
2018-06-22T07:20:52.848Z,3.45
2018-06-22T07:23:20.091Z,3.15
2018-06-22T07:25:47.244Z,4.00
2018-06-22T07:28:18.032Z,3.20
2018-06-22T07:30:45.333Z,4.40
2018-06-22T07:33:12.481Z,3.92
2018-06-22T07:35:39.744Z,4.53
2018-06-22T07:38:06.920Z,3.27
2018-06-22T07:40:34.118Z,3.50
2018-06-22T07:43:01.306Z,4.35
2018-06-22T07:45:30.227Z,4.40
2018-06-22T07:48:00.405Z,3.47
2018-06-22T07:50:27.957Z,3.87
2018-06-22T07:52:55.128Z,3.72
2018-06-22T07:55:22.356Z,3.90
2018-06-22T07:57:52.930Z,3.90
2018-06-22T08:00:20.605Z,4.00
2018-06-22T08:02:47.800Z,3.90
2018-06-22T08:05:15.020Z,4.17
2018-06-22T08:07:42.205Z,3.70
2018-06-22T08:10:09.372Z,4.05
2018-06-22T08:12:36.588Z,3.97
2018-06-22T08:15:03.783Z,3.30
2018-06-22T08:17:31.079Z,3.25
2018-06-22T08:19:58.243Z,4.37
2018-06-22T08:22:25.402Z,3.35
2018-06-22T08:24:52.696Z,3.85
2018-06-22T08:27:19.877Z,3.10
2018-06-22T08:29:47.084Z,3.37
2018-06-22T08:32:14.316Z,3.73
2018-06-22T08:34:41.604Z,4.13
2018-06-22T08:37:08.800Z,3.15
2018-06-22T08:39:35.960Z,3.40
2018-06-22T08:42:03.732Z,3.10
2018-06-22T08:44:30.893Z,3.62
2018-06-22T08:46:58.272Z,3.83
2018-06-22T08:49:25.614Z,3.70
2018-06-22T08:51:52.960Z,4.60
2018-06-22T08:54:20.291Z,3.33
2018-06-22T08:56:47.637Z,3.70
2018-06-22T08:59:15.029Z,3.70
2018-06-22T09:01:42.485Z,3.50
2018-06-22T09:04:09.816Z,3.70
2018-06-22T09:06:37.187Z,3.30
2018-06-22T09:09:06.430Z,3.80
2018-06-22T09:11:33.806Z,2.93
2018-06-22T09:14:01.185Z,3.17
2018-06-22T09:16:28.553Z,3.93
2018-06-22T09:18:56.001Z,3.40
2018-06-22T09:21:23.385Z,3.53
2018-06-22T09:23:50.701Z,3.73
2018-06-22T09:26:18.049Z,4.00
2018-06-22T09:28:45.390Z,3.83
2018-06-22T09:31:12.847Z,2.97
2018-06-22T09:33:40.243Z,2.50
2018-06-22T09:36:07.599Z,2.87
2018-06-22T09:38:34.960Z,3.60
2018-06-22T09:41:02.437Z,3.40
2018-06-22T09:43:29.831Z,4.10
2018-06-22T09:45:57.844Z,3.57
2018-06-22T09:48:25.342Z,3.20
2018-06-22T09:50:52.666Z,3.30
2018-06-22T09:53:20.045Z,3.00
2018-06-22T09:55:47.485Z,3.30
2018-06-22T09:58:14.871Z,3.37
2018-06-22T10:00:46.840Z,3.90
2018-06-22T10:03:14.300Z,3.50
2018-06-22T10:05:41.662Z,2.50
2018-06-22T10:08:09.009Z,2.50
2018-06-22T10:10:36.442Z,2.80
2018-06-22T10:13:04.105Z,2.57
2018-06-22T10:15:31.577Z,2.70
2018-06-22T10:17:59.117Z,2.50
2018-06-22T10:20:26.586Z,3.50
2018-06-22T10:22:53.983Z,3.10
2018-06-22T10:25:21.388Z,3.10
2018-06-22T10:27:48.757Z,3.30
2018-06-22T10:30:16.135Z,3.63
2018-06-22T10:32:43.592Z,3.40
2018-06-22T10:35:11.603Z,3.50
2018-06-22T10:37:42.430Z,2.80
2018-06-22T10:40:09.836Z,2.50
2018-06-22T10:42:37.209Z,2.57
2018-06-22T10:45:04.768Z,2.50
2018-06-22T10:47:32.204Z,2.20
2018-06-22T10:49:59.826Z,3.17
2018-06-22T10:52:27.381Z,3.20
2018-06-22T10:54:54.773Z,3.70
2018-06-22T10:57:22.200Z,3.90
2018-06-22T10:59:49.747Z,4.30
2018-06-22T11:02:17.124Z,3.30
2018-06-22T11:04:44.501Z,4.10
2018-06-22T11:07:12.401Z,2.60
2018-06-22T11:09:39.799Z,3.67
2018-06-22T11:12:07.209Z,3.10
2018-06-22T11:14:34.644Z,3.70
2018-06-22T11:17:02.095Z,3.10
2018-06-22T11:19:29.542Z,3.80
2018-06-22T11:21:57.017Z,3.70
2018-06-22T11:24:24.998Z,3.50
2018-06-22T11:26:52.399Z,4.30
2018-06-22T11:29:19.802Z,3.87
2018-06-22T11:31:47.212Z,4.47
2018-06-22T11:34:14.611Z,3.00
2018-06-22T11:36:42.013Z,2.87
2018-06-22T11:39:10.330Z,3.03
2018-06-22T11:41:38.508Z,3.30
2018-06-22T11:44:06.076Z,2.67
2018-06-22T11:46:33.470Z,2.73
2018-06-22T11:49:00.888Z,2.80
2018-06-22T11:51:28.394Z,2.40
2018-06-22T11:53:55.884Z,2.07
2018-06-22T11:56:23.295Z,1.90
2018-06-22T11:58:51.108Z,1.90
2018-06-22T12:01:18.520Z,1.40
2018-06-22T12:03:45.976Z,1.40
2018-06-22T12:06:13.988Z,1.77
2018-06-22T12:08:41.452Z,1.33
2018-06-22T12:11:08.860Z,1.50
2018-06-22T12:13:36.315Z,1.60
2018-06-22T12:16:03.732Z,1.17
2018-06-22T12:18:31.173Z,1.20
2018-06-22T12:20:58.637Z,1.20
2018-06-22T12:23:26.088Z,1.40
2018-06-22T12:25:53.445Z,1.40
2018-06-22T12:28:20.946Z,1.40
2018-06-22T12:30:48.328Z,1.70
2018-06-22T12:33:16.218Z,1.40
2018-06-22T12:35:44.317Z,2.00
2018-06-22T12:38:12.216Z,1.07
2018-06-22T12:40:39.621Z,1.40
2018-06-22T12:43:07.234Z,1.40
2018-06-22T12:45:34.656Z,2.67
2018-06-22T12:48:02.260Z,1.50
2018-06-22T12:50:29.682Z,1.30
2018-06-22T12:52:57.095Z,1.13
2018-06-22T12:55:24.481Z,2.20
2018-06-22T12:57:51.934Z,1.77
2018-06-22T13:00:19.344Z,1.20
2018-06-22T13:02:46.722Z,1.00
2018-06-22T13:05:14.372Z,1.00
2018-06-22T13:07:41.834Z,0.90
2018-06-22T13:10:09.335Z,0.90
2018-06-22T13:12:36.736Z,0.90
2018-06-22T13:15:04.324Z,1.20
2018-06-22T13:17:31.812Z,1.27
2018-06-22T13:19:59.372Z,1.77
2018-06-22T13:22:26.767Z,1.47
2018-06-22T13:24:54.172Z,1.50
2018-06-22T13:27:21.537Z,1.80
2018-06-22T13:29:48.909Z,1.30
2018-06-22T13:32:16.244Z,1.97
2018-06-22T13:34:43.667Z,2.17
2018-06-22T13:37:11.044Z,1.80
2018-06-22T13:39:38.404Z,1.97
2018-06-22T13:42:05.790Z,2.00
2018-06-22T13:44:33.372Z,1.90
2018-06-22T13:47:00.849Z,1.60
2018-06-22T13:49:28.269Z,2.17
2018-06-22T13:51:55.677Z,2.57
2018-06-22T13:54:23.307Z,2.33
2018-06-22T13:56:50.740Z,1.87
2018-06-22T13:59:18.140Z,1.87
2018-06-22T14:01:45.529Z,2.03
2018-06-22T14:04:18.564Z,1.97
2018-06-22T14:06:50.371Z,2.43
2018-06-22T14:09:17.836Z,1.63
2018-06-22T14:11:45.244Z,1.93
2018-06-22T14:14:14.250Z,2.30
2018-06-22T14:16:41.973Z,2.70
2018-06-22T14:19:09.486Z,2.40
2018-06-22T14:21:37.054Z,2.00
2018-06-22T14:24:05.221Z,2.17
2018-06-22T14:26:32.652Z,2.23
2018-06-22T14:29:00.212Z,3.00
2018-06-22T14:31:28.688Z,2.00
2018-06-22T14:33:56.564Z,2.20
2018-06-22T14:36:24.308Z,2.37
2018-06-22T14:38:51.772Z,2.27
2018-06-22T14:41:19.372Z,1.93
2018-06-22T14:43:46.849Z,2.80
2018-06-22T14:46:14.349Z,2.67
2018-06-22T14:48:41.829Z,2.50
2018-06-22T14:51:09.249Z,1.67
2018-06-22T14:53:42.428Z,2.53
2018-06-22T14:56:15.610Z,1.87
2018-06-22T14:58:48.764Z,1.63
2018-06-22T15:01:21.898Z,2.00
2018-06-22T15:03:55.085Z,1.60
2018-06-22T15:06:28.224Z,1.47
2018-06-22T15:08:55.748Z,1.57
2018-06-22T15:11:23.236Z,1.50
2018-06-22T15:13:50.707Z,1.43
2018-06-22T15:16:18.164Z,1.10
2018-06-22T15:18:47.072Z,1.40
2018-06-22T15:21:14.512Z,1.40
2018-06-22T15:23:45.782Z,1.40
2018-06-22T15:26:13.197Z,1.40
2018-06-22T15:28:40.884Z,1.70
2018-06-22T15:31:08.420Z,1.60
2018-06-22T15:33:41.584Z,1.20
2018-06-22T15:36:14.649Z,1.33
2018-06-22T15:38:47.657Z,1.63
2018-06-22T15:41:20.783Z,1.50
2018-06-22T15:43:53.759Z,2.00
2018-06-22T15:46:26.900Z,1.20
2018-06-22T15:48:59.992Z,1.67
2018-06-22T15:53:41.501Z,1.60
2018-06-22T15:56:09.988Z,1.20
2018-06-22T15:58:37.197Z,1.43
2018-06-22T16:01:04.465Z,1.43
2018-06-22T16:04:38.028Z,1.53
2018-06-22T16:07:05.568Z,1.93
2018-06-22T16:09:38.479Z,1.57
2018-06-22T16:12:11.659Z,1.73
2018-06-22T16:14:44.863Z,2.00
2018-06-22T16:17:18.107Z,1.60
2018-06-22T16:19:51.171Z,2.40
2018-06-22T16:22:27.584Z,1.53
2018-06-22T16:25:00.620Z,1.60
2018-06-22T16:27:28.070Z,2.00
2018-06-22T16:29:55.492Z,1.67
2018-06-22T16:32:22.895Z,1.40
2018-06-22T16:34:50.292Z,1.67
2018-06-22T16:37:17.679Z,1.43
2018-06-22T16:39:45.162Z,1.40
2018-06-22T16:42:12.707Z,1.30
2018-06-22T16:44:40.160Z,1.23
2018-06-22T16:47:07.519Z,1.30
2018-06-22T16:49:34.884Z,1.57
2018-06-22T16:52:02.250Z,1.20
2018-06-22T16:54:29.671Z,1.97
2018-06-22T16:56:57.240Z,1.50
2018-06-22T16:59:24.619Z,1.40
2018-06-22T17:01:52.063Z,1.60
2018-06-22T17:04:19.457Z,1.30
2018-06-22T17:06:52.537Z,1.67
2018-06-22T17:09:25.580Z,1.60
2018-06-22T17:11:58.820Z,1.60
2018-06-22T17:14:32.113Z,1.40
2018-06-22T17:18:04.864Z,2.47
2018-06-22T17:20:32.169Z,1.70
2018-06-22T17:22:59.388Z,2.00
2018-06-22T17:25:29.216Z,2.23
2018-06-22T17:27:56.627Z,2.07
2018-06-22T17:30:23.877Z,1.50
2018-06-22T17:32:51.052Z,1.60
2018-06-22T17:35:18.308Z,1.87
2018-06-22T17:37:45.548Z,2.00
2018-06-22T17:40:12.844Z,1.70
2018-06-22T17:42:40.125Z,1.63
2018-06-22T17:45:07.380Z,2.20
2018-06-22T17:47:34.709Z,1.83
2018-06-22T17:50:07.414Z,1.90
2018-06-22T17:52:34.688Z,1.40
2018-06-22T17:55:01.986Z,2.03
2018-06-22T17:57:29.216Z,1.67
2018-06-22T18:00:02.289Z,1.37
2018-06-22T18:02:35.199Z,1.90
2018-06-22T18:05:08.092Z,1.50
2018-06-22T18:07:40.132Z,1.47
2018-06-22T18:10:13.078Z,1.37
2018-06-22T18:12:46.760Z,2.27
2018-06-22T18:15:14.135Z,2.10
2018-06-22T18:17:41.344Z,3.20
2018-06-22T18:20:08.617Z,1.50
2018-06-22T18:22:35.817Z,1.80
2018-06-22T18:25:03.045Z,1.60
2018-06-22T18:27:30.376Z,1.90
2018-06-22T18:29:57.677Z,2.17
2018-06-22T18:32:24.900Z,2.00
2018-06-22T18:34:52.101Z,2.00
2018-06-22T18:37:19.334Z,1.83
2018-06-22T18:39:46.546Z,1.70
2018-06-22T18:42:13.872Z,2.10
2018-06-22T18:44:41.268Z,2.03
2018-06-22T18:47:08.648Z,1.73
2018-06-22T18:49:36.081Z,2.10
2018-06-22T18:52:09.181Z,2.03
2018-06-22T18:54:42.203Z,1.70
2018-06-22T18:57:15.220Z,1.60
2018-06-22T18:59:47.084Z,2.40
2018-06-22T19:02:20.752Z,1.80
2018-06-22T19:04:47.948Z,1.53
2018-06-22T19:07:15.265Z,1.80
2018-06-22T19:09:42.476Z,2.13
2018-06-22T19:12:09.668Z,1.60
2018-06-22T19:14:36.859Z,1.90
2018-06-22T19:17:04.388Z,2.10
2018-06-22T19:19:31.643Z,2.13
2018-06-22T19:21:59.231Z,2.30
2018-06-22T19:24:26.792Z,1.90
2018-06-22T19:26:54.009Z,2.23
2018-06-22T19:29:21.385Z,2.00
2018-06-22T19:31:48.582Z,2.13
2018-06-22T19:34:19.200Z,2.17
2018-06-22T19:36:46.602Z,1.93
2018-06-22T19:39:13.996Z,2.50
2018-06-22T19:41:41.384Z,1.90
2018-06-22T19:44:14.361Z,2.90
2018-06-22T19:48:53.410Z,2.27
2018-06-22T19:51:26.681Z,2.37
2018-06-22T19:53:57.306Z,2.37
2018-06-22T19:56:24.746Z,2.10
2018-06-22T19:58:52.210Z,1.93
2018-06-22T20:01:20.184Z,2.23
2018-06-22T20:03:47.632Z,2.23
2018-06-22T20:06:15.158Z,2.53
2018-06-22T20:08:42.611Z,1.80
2018-06-22T20:11:10.589Z,1.80
2018-06-22T20:13:38.260Z,2.10
2018-06-22T20:16:05.816Z,2.57
2018-06-22T20:18:33.159Z,2.90
2018-06-22T20:21:00.545Z,2.20
2018-06-22T20:23:28.036Z,2.40
2018-06-22T20:25:55.445Z,2.77
2018-06-22T20:28:22.835Z,2.13
2018-06-22T20:30:53.528Z,2.20
2018-06-22T20:33:21.284Z,3.03
2018-06-22T20:35:54.599Z,2.70
2018-06-22T20:38:27.600Z,2.40
2018-06-22T20:41:00.697Z,2.70
2018-06-22T20:43:50.965Z,2.63
2018-06-22T20:46:24.693Z,2.57
2018-06-22T20:48:58.380Z,2.57
2018-06-22T20:51:30.502Z,2.70
2018-06-22T20:53:57.961Z,3.43
2018-06-22T20:56:25.580Z,2.00
2018-06-22T20:58:52.972Z,2.80
2018-06-22T21:01:20.392Z,2.83
2018-06-22T21:03:47.961Z,2.27
2018-06-22T21:06:15.608Z,2.40
2018-06-22T21:08:43.201Z,2.57
2018-06-22T21:11:10.828Z,2.57
2018-06-22T21:13:38.268Z,2.57
2018-06-22T21:16:06.325Z,2.57
2018-06-22T21:18:33.876Z,3.07
2018-06-22T21:21:07.253Z,2.63
2018-06-22T21:23:34.760Z,3.10
2018-06-22T21:26:02.272Z,2.40
2018-06-22T21:30:41.216Z,3.30
2018-06-22T21:33:14.148Z,3.00
2018-06-22T21:35:47.272Z,2.30
2018-06-22T21:38:20.181Z,3.27
2018-06-22T21:40:47.506Z,2.73
2018-06-22T21:43:14.808Z,3.37
2018-06-22T21:45:42.131Z,2.17
2018-06-22T21:48:09.600Z,2.30
2018-06-22T21:50:36.886Z,2.47
2018-06-22T21:53:04.178Z,3.13
2018-06-22T21:55:32.057Z,3.23
2018-06-22T21:57:59.360Z,2.00
2018-06-22T22:00:30.414Z,2.57
2018-06-22T22:02:59.424Z,2.30
2018-06-22T22:05:27.864Z,3.13
2018-06-22T22:07:55.246Z,2.53
2018-06-22T22:10:28.160Z,2.50
2018-06-22T22:12:55.777Z,2.20
2018-06-22T22:15:23.219Z,2.87
2018-06-22T22:17:50.535Z,2.73
2018-06-22T22:20:17.863Z,3.40
2018-06-22T22:22:45.183Z,3.03
2018-06-22T22:25:12.420Z,3.77
2018-06-22T22:27:39.714Z,3.37
2018-06-22T22:30:07.144Z,2.60
2018-06-22T22:32:34.370Z,3.20
2018-06-22T22:35:01.707Z,2.57
2018-06-22T22:37:28.972Z,3.00
2018-06-22T22:39:56.228Z,2.43
2018-06-22T22:42:23.454Z,3.67
2018-06-22T22:44:50.792Z,3.13
2018-06-22T22:47:18.052Z,2.90
2018-06-22T22:49:45.233Z,2.07
2018-06-22T22:52:12.453Z,2.60
2018-06-22T22:54:39.697Z,3.60
2018-06-22T22:57:06.962Z,2.70
2018-06-22T22:59:34.213Z,2.20
2018-06-22T23:02:01.458Z,2.80
2018-06-22T23:04:28.764Z,2.90
2018-06-22T23:06:55.965Z,3.00
2018-06-22T23:09:23.256Z,2.90
2018-06-22T23:11:51.560Z,2.70
2018-06-22T23:14:18.884Z,2.70
2018-06-22T23:16:46.181Z,2.73
2018-06-22T23:19:13.446Z,2.60
2018-06-22T23:21:40.861Z,2.40
2018-06-22T23:24:08.247Z,3.00
2018-06-22T23:26:35.564Z,3.63
2018-06-22T23:29:02.957Z,3.13
2018-06-22T23:31:30.330Z,3.53
2018-06-22T23:33:57.578Z,2.60
2018-06-22T23:36:24.883Z,4.20
2018-06-22T23:38:53.164Z,2.37
2018-06-22T23:41:20.381Z,3.03
2018-06-22T23:43:47.607Z,3.70
2018-06-22T23:46:14.944Z,3.60
2018-06-22T23:48:42.161Z,3.80
2018-06-22T23:51:09.396Z,3.30
2018-06-22T23:53:36.735Z,2.97
2018-06-22T23:56:04.023Z,3.93
2018-06-22T23:58:31.384Z,2.73
